Time;durP1;ratioP1;P1;durP2;ratioP2;P2;SDS_P1;SDS_P2;PMS_P1;PMS_P2;Temp;Humidity;BMP_temperature;BMP_pressure;BME280_temperature;BME280_humidity;BME280_pressure;Samples;Min_cycle;Max_cycle;Signal;HPM_P1;HPM_P2
2023/01/09 00:01:28;;;;;;;8.15;3.60;;;4.90;99.50;;;;;;5023713;28;20144;-68
2023/01/09 00:03:53;;;;;;;8.00;3.88;;;4.80;99.60;;;;;;5028083;28;20441;-69
2023/01/09 00:06:19;;;;;;;5.70;3.42;;;4.80;99.60;;;;;;5027786;28;20068;-69
2023/01/09 00:08:44;;;;;;;6.30;3.60;;;4.70;99.60;;;;;;5027871;28;20108;-68
2023/01/09 00:11:10;;;;;;;7.07;3.85;;;4.70;99.60;;;;;;5029805;28;20036;-68
2023/01/09 00:13:36;;;;;;;8.00;4.38;;;4.70;99.60;;;;;;5029143;28;20026;-68
2023/01/09 00:16:04;;;;;;;6.55;3.92;;;4.70;99.60;;;;;;5029798;28;20452;-68
2023/01/09 00:18:29;;;;;;;10.52;4.18;;;4.80;99.70;;;;;;5027300;28;20532;-68
2023/01/09 00:20:59;;;;;;;9.50;4.70;;;4.90;99.70;;;;;;5027040;28;20034;-68
2023/01/09 00:23:24;;;;;;;6.80;3.95;;;4.80;99.60;;;;;;5026896;28;20033;-69
2023/01/09 00:25:49;;;;;;;7.75;4.30;;;4.70;99.60;;;;;;5025656;28;20048;-68
2023/01/09 00:28:15;;;;;;;7.65;4.43;;;4.80;99.60;;;;;;5028387;28;20931;-69
2023/01/09 00:30:40;;;;;;;9.15;5.28;;;4.80;99.60;;;;;;5026350;28;20037;-68
2023/01/09 00:33:06;;;;;;;8.73;4.40;;;4.90;99.70;;;;;;5024845;28;20034;-69
2023/01/09 00:35:32;;;;;;;9.25;4.95;;;4.90;99.50;;;;;;5021507;28;20030;-68
2023/01/09 00:37:57;;;;;;;9.50;5.60;;;4.90;99.50;;;;;;5018977;28;20029;-69
2023/01/09 00:40:23;;;;;;;9.32;5.20;;;4.90;99.50;;;;;;5031638;28;20038;-68
2023/01/09 00:42:53;;;;;;;10.38;5.28;;;4.80;99.50;;;;;;5022747;28;20036;-69
2023/01/09 00:45:27;;;;;;;11.50;5.30;;;4.70;99.40;;;;;;5022601;28;20044;-69
2023/01/09 00:47:54;;;;;;;8.60;5.28;;;4.70;99.50;;;;;;5024844;28;20045;-68
2023/01/09 00:50:26;;;;;;;8.63;5.32;;;4.70;99.50;;;;;;5018836;28;20040;-69
2023/01/09 00:52:54;;;;;;;8.50;5.22;;;4.80;99.50;;;;;;5026907;28;20488;-68
2023/01/09 00:55:20;;;;;;;10.57;5.38;;;4.80;99.40;;;;;;5020639;28;20037;-69
2023/01/09 00:57:46;;;;;;;11.77;5.85;;;4.80;99.60;;;;;;5033413;28;20033;-69
2023/01/09 01:00:12;;;;;;;7.90;5.03;;;4.80;99.60;;;;;;5018923;28;20700;-68
2023/01/09 01:02:37;;;;;;;8.70;5.20;;;4.80;99.60;;;;;;5025436;28;20033;-69
2023/01/09 01:07:48;;;;;;;9.70;5.47;;;4.70;99.40;;;;;;5027668;28;20126;-69
2023/01/09 01:10:21;;;;;;;8.45;5.10;;;4.60;99.40;;;;;;5027914;28;20207;-68
2023/01/09 01:12:48;;;;;;;8.25;5.25;;;4.70;99.50;;;;;;5030832;28;20041;-68
2023/01/09 01:15:14;;;;;;;11.38;5.88;;;4.70;99.60;;;;;;5029232;28;20029;-69
2023/01/09 01:17:40;;;;;;;12.30;5.72;;;4.70;99.60;;;;;;5031747;28;20124;-69
2023/01/09 01:20:09;;;;;;;9.05;5.38;;;4.70;99.50;;;;;;5028324;28;20091;-68
2023/01/09 01:22:35;;;;;;;11.23;5.57;;;4.70;99.50;;;;;;5027256;28;20060;-69
2023/01/09 01:25:01;;;;;;;11.82;5.40;;;4.70;99.60;;;;;;5029763;28;20034;-68
2023/01/09 01:27:27;;;;;;;9.45;5.70;;;4.80;99.60;;;;;;5024725;28;20042;-68
2023/01/09 01:29:53;;;;;;;10.25;5.53;;;4.90;99.70;;;;;;5028684;28;20390;-68
2023/01/09 01:32:19;;;;;;;9.48;5.40;;;5.00;99.60;;;;;;5028889;28;20041;-68
2023/01/09 01:34:44;;;;;;;9.38;5.80;;;5.00;99.60;;;;;;5030223;28;20053;-68
2023/01/09 01:37:10;;;;;;;9.15;5.47;;;5.10;99.50;;;;;;5028676;28;20033;-68
2023/01/09 01:39:36;;;;;;;10.55;5.20;;;5.10;99.40;;;;;;5030275;28;20401;-69
2023/01/09 01:42:03;;;;;;;11.38;5.82;;;5.10;99.30;;;;;;5027314;28;20029;-68
2023/01/09 01:45:04;;;;;;;10.13;5.15;;;5.20;99.30;;;;;;5029722;28;20457;-70
2023/01/09 01:47:45;;;;;;;7.68;5.15;;;5.30;99.30;;;;;;5032563;28;20036;-68
2023/01/09 01:50:23;;;;;;;9.60;5.25;;;5.20;99.20;;;;;;5025330;28;20129;-69
2023/01/09 01:53:07;;;;;;;10.55;4.95;;;5.30;99.20;;;;;;5027065;28;20041;-69
2023/01/09 01:55:34;;;;;;;11.95;5.45;;;5.40;99.10;;;;;;5029211;28;20029;-68
2023/01/09 01:58:03;;;;;;;8.35;5.10;;;5.40;99.00;;;;;;5034001;28;20029;-69
2023/01/09 02:00:37;;;;;;;11.93;4.95;;;5.40;98.90;;;;;;5023094;28;20156;-68
2023/01/09 02:03:03;;;;;;;8.70;5.07;;;5.50;98.80;;;;;;5026969;28;20022;-68
2023/01/09 02:05:29;;;;;;;10.73;4.82;;;5.60;98.80;;;;;;5025289;28;20033;-68
2023/01/09 02:07:55;;;;;;;9.05;4.95;;;5.70;98.50;;;;;;5024308;28;20037;-69
2023/01/09 02:10:22;;;;;;;8.13;4.80;;;5.70;98.40;;;;;;5028732;28;20033;-69
2023/01/09 02:12:48;;;;;;;14.50;5.32;;;5.60;98.40;;;;;;5028744;28;20036;-68
2023/01/09 02:15:14;;;;;;;7.82;4.53;;;5.60;98.40;;;;;;5028576;28;20057;-69
2023/01/09 02:18:04;;;;;;;7.07;4.75;;;5.60;98.40;;;;;;5026538;28;20037;-69
2023/01/09 02:20:55;;;;;;;10.90;4.47;;;5.60;98.40;;;;;;5028120;28;20045;-68
2023/01/09 02:23:33;;;;;;;11.55;4.28;;;5.60;98.40;;;;;;5026532;28;20075;-68
2023/01/09 02:26:20;;;;;;;10.60;4.30;;;5.60;98.40;;;;;;5023892;28;20021;-68
2023/01/09 02:29:34;;;;;;;8.57;3.88;;;5.70;98.50;;;;;;5023266;28;20030;-69
2023/01/09 02:32:32;;;;;;;6.80;3.97;;;5.70;98.40;;;;;;5026402;28;20033;-69
2023/01/09 02:35:15;;;;;;;5.85;3.22;;;5.70;98.30;;;;;;5027660;28;20029;-68
2023/01/09 02:38:02;;;;;;;9.13;3.88;;;5.70;98.40;;;;;;5026508;28;20037;-69
2023/01/09 02:40:37;;;;;;;6.35;3.83;;;5.80;98.40;;;;;;5028454;28;20080;-69
2023/01/09 02:43:05;;;;;;;5.65;3.60;;;5.80;98.30;;;;;;5029061;28;20598;-69
2023/01/09 02:45:31;;;;;;;5.38;3.30;;;5.90;98.30;;;;;;5026720;28;20030;-69
2023/01/09 02:47:56;;;;;;;7.13;3.15;;;5.90;98.10;;;;;;5030310;28;20044;-68
2023/01/09 02:50:51;;;;;;;7.88;3.08;;;6.00;98.10;;;;;;5026535;28;20553;-69
2023/01/09 02:53:39;;;;;;;4.15;2.72;;;6.00;98.10;;;;;;5026494;28;20045;-69
2023/01/09 02:56:16;;;;;;;5.20;2.75;;;6.10;98.20;;;;;;5030357;28;20029;-69
2023/01/09 02:58:58;;;;;;;5.95;2.80;;;6.10;98.10;;;;;;5023078;28;20382;-69
2023/01/09 03:01:39;;;;;;;4.13;2.60;;;6.10;98.20;;;;;;5026013;28;20382;-68
2023/01/09 03:04:17;;;;;;;7.35;2.72;;;6.10;98.20;;;;;;5024893;28;20492;-69
2023/01/09 03:07:01;;;;;;;5.10;2.63;;;6.10;98.20;;;;;;5028561;28;20206;-68
2023/01/09 03:09:31;;;;;;;5.32;2.65;;;6.10;98.40;;;;;;5033354;28;20482;-69
2023/01/09 03:12:08;;;;;;;5.63;2.60;;;6.10;98.40;;;;;;5030673;28;20044;-69
2023/01/09 03:14:36;;;;;;;3.53;2.35;;;6.10;98.40;;;;;;5028934;28;20037;-68
2023/01/09 03:17:06;;;;;;;5.15;2.70;;;6.20;98.40;;;;;;5031961;28;20489;-69
2023/01/09 03:19:33;;;;;;;5.00;2.65;;;6.20;98.20;;;;;;5032998;28;20232;-69
2023/01/09 03:21:59;;;;;;;4.78;2.63;;;6.30;98.30;;;;;;5028760;28;20099;-69
2023/01/09 03:24:25;;;;;;;3.25;2.45;;;6.30;98.10;;;;;;5029464;28;20033;-70
2023/01/09 03:26:53;;;;;;;4.15;2.10;;;6.30;98.10;;;;;;5030852;28;20105;-69
2023/01/09 03:29:18;;;;;;;5.57;2.20;;;6.30;98.10;;;;;;5032107;28;20207;-69
2023/01/09 03:31:44;;;;;;;6.00;2.25;;;6.30;98.20;;;;;;5030171;28;20120;-69
2023/01/09 03:34:09;;;;;;;4.40;1.98;;;6.30;98.20;;;;;;5031308;28;20034;-69
2023/01/09 03:36:34;;;;;;;3.97;2.15;;;6.30;98.40;;;;;;5031395;28;20092;-68
2023/01/09 03:39:00;;;;;;;5.70;2.75;;;6.40;98.30;;;;;;5028929;28;20025;-69
2023/01/09 03:41:25;;;;;;;4.05;2.30;;;6.30;98.40;;;;;;5032783;28;20074;-69
2023/01/09 03:43:51;;;;;;;4.70;2.15;;;6.40;98.50;;;;;;5033204;28;20386;-69
2023/01/09 03:46:16;;;;;;;4.68;2.10;;;6.30;98.50;;;;;;5029790;28;20041;-69
2023/01/09 03:48:42;;;;;;;5.90;2.05;;;6.30;98.70;;;;;;5035668;28;20191;-69
2023/01/09 03:51:08;;;;;;;4.60;2.10;;;6.30;98.70;;;;;;5031012;28;20412;-68
2023/01/09 03:53:33;;;;;;;3.97;2.22;;;6.40;98.90;;;;;;5030659;28;20037;-70
2023/01/09 03:55:59;;;;;;;2.85;1.77;;;6.40;98.90;;;;;;5030441;28;20029;-68
2023/01/09 03:58:25;;;;;;;3.22;2.10;;;6.40;98.90;;;;;;5034235;28;20029;-69
2023/01/09 04:00:55;;;;;;;3.42;2.00;;;6.40;98.90;;;;;;5019895;28;20443;-68
2023/01/09 04:03:21;;;;;;;7.35;2.05;;;6.40;99.10;;;;;;5030642;28;20040;-69
2023/01/09 04:05:48;;;;;;;5.10;2.20;;;6.40;99.20;;;;;;5031907;28;20037;-68
2023/01/09 04:08:14;;;;;;;4.07;2.10;;;6.40;99.20;;;;;;5029914;28;20021;-70
2023/01/09 04:10:42;;;;;;;2.85;1.88;;;6.40;99.30;;;;;;5024394;28;20355;-69
2023/01/09 04:13:08;;;;;;;4.78;2.30;;;6.40;99.40;;;;;;5032646;28;20030;-70
2023/01/09 04:15:33;;;;;;;3.63;2.05;;;6.30;99.40;;;;;;5024017;28;20029;-69
2023/01/09 04:17:58;;;;;;;3.90;1.98;;;6.40;99.50;;;;;;5021165;28;20037;-68
2023/01/09 04:20:24;;;;;;;3.97;2.03;;;6.30;99.60;;;;;;5030418;28;20044;-68
2023/01/09 04:22:49;;;;;;;4.75;2.08;;;6.30;99.60;;;;;;5028190;28;20481;-69
2023/01/09 04:25:15;;;;;;;3.78;2.17;;;6.40;99.80;;;;;;5031385;28;20033;-69
2023/01/09 04:27:40;;;;;;;5.13;2.30;;;6.30;99.80;;;;;;5030752;28;20035;-69
2023/01/09 04:30:07;;;;;;;5.85;2.30;;;6.40;99.90;;;;;;5029571;28;20482;-69
2023/01/09 04:32:32;;;;;;;2.90;2.08;;;6.40;99.90;;;;;;5028362;28;20029;-68
2023/01/09 04:34:58;;;;;;;5.05;2.40;;;6.40;99.90;;;;;;5026099;28;20033;-69
2023/01/09 04:37:23;;;;;;;6.07;2.78;;;6.30;99.90;;;;;;5022437;28;20030;-68
2023/01/09 04:39:50;;;;;;;3.78;2.50;;;6.40;99.90;;;;;;5030882;28;20533;-69
2023/01/09 04:42:15;;;;;;;4.20;2.90;;;6.40;99.90;;;;;;5027091;28;20048;-69
2023/01/09 04:44:41;;;;;;;4.18;2.35;;;6.40;99.90;;;;;;5027629;28;20037;-69
2023/01/09 04:47:06;;;;;;;4.13;2.45;;;6.40;99.90;;;;;;5028874;28;20416;-69
2023/01/09 04:49:32;;;;;;;3.78;2.25;;;6.40;99.90;;;;;;5026141;28;20090;-68
2023/01/09 04:51:57;;;;;;;5.13;2.58;;;6.40;99.90;;;;;;5026691;28;20030;-69
2023/01/09 04:54:23;;;;;;;3.85;2.38;;;6.40;99.90;;;;;;5030733;28;20090;-69
2023/01/09 04:56:49;;;;;;;4.15;2.25;;;6.40;99.90;;;;;;5029154;28;20064;-69
2023/01/09 04:59:14;;;;;;;4.68;2.67;;;6.40;99.90;;;;;;5023744;28;20045;-69
2023/01/09 05:01:40;;;;;;;4.28;2.47;;;6.40;99.90;;;;;;5031097;28;20048;-69
2023/01/09 05:04:06;;;;;;;4.95;2.28;;;6.40;99.90;;;;;;5030438;28;20522;-68
2023/01/09 05:06:32;;;;;;;5.80;2.20;;;6.40;99.90;;;;;;5031822;28;20044;-69
2023/01/09 05:08:58;;;;;;;3.53;1.98;;;6.40;99.90;;;;;;5023494;28;20026;-69
2023/01/09 05:11:24;;;;;;;5.00;1.55;;;6.30;99.90;;;;;;5024662;28;20033;-69
2023/01/09 05:13:50;;;;;;;3.58;1.80;;;6.30;99.90;;;;;;5031079;28;20164;-69
2023/01/09 05:16:16;;;;;;;2.72;1.50;;;6.30;99.90;;;;;;5028262;28;20029;-69
2023/01/09 05:18:41;;;;;;;3.60;1.48;;;6.30;99.90;;;;;;5020667;28;20493;-70
2023/01/09 05:21:07;;;;;;;3.33;1.60;;;6.30;99.90;;;;;;5025085;28;20053;-69
2023/01/09 05:23:32;;;;;;;3.15;1.60;;;6.20;99.90;;;;;;5025240;28;20046;-69
2023/01/09 05:25:58;;;;;;;6.68;1.92;;;6.20;99.90;;;;;;5026641;28;20124;-68
2023/01/09 05:28:23;;;;;;;3.97;1.77;;;6.20;99.90;;;;;;5023045;28;20041;-70
2023/01/09 05:30:49;;;;;;;3.90;2.00;;;6.20;99.90;;;;;;5031159;28;20394;-69
2023/01/09 05:33:14;;;;;;;2.42;1.77;;;6.20;99.90;;;;;;5030633;28;20033;-70
2023/01/09 05:35:40;;;;;;;2.75;1.77;;;6.20;99.90;;;;;;5029854;28;20175;-70
2023/01/09 05:38:05;;;;;;;2.80;2.00;;;6.20;99.90;;;;;;5027960;28;20041;-70
2023/01/09 05:40:31;;;;;;;3.03;1.80;;;6.10;99.90;;;;;;5025554;28;20553;-70
2023/01/09 05:42:56;;;;;;;2.83;1.75;;;6.10;99.90;;;;;;5027830;28;20038;-69
2023/01/09 05:45:22;;;;;;;3.22;1.92;;;6.10;99.90;;;;;;5030082;28;20112;-70
2023/01/09 05:47:47;;;;;;;7.32;1.80;;;6.10;99.90;;;;;;5028364;28;20063;-70
2023/01/09 05:50:13;;;;;;;3.13;2.00;;;6.10;99.90;;;;;;5027097;28;20482;-70
2023/01/09 05:52:39;;;;;;;3.80;2.10;;;6.10;99.90;;;;;;5028342;28;20120;-69
2023/01/09 05:55:06;;;;;;;2.60;1.88;;;6.10;99.90;;;;;;5024648;28;20030;-70
2023/01/09 05:57:32;;;;;;;2.70;1.63;;;6.10;99.90;;;;;;5022193;28;20041;-70
2023/01/09 05:59:57;;;;;;;3.05;1.85;;;6.10;99.90;;;;;;5027959;28;20041;-70
2023/01/09 06:02:23;;;;;;;2.35;1.50;;;6.10;99.90;;;;;;5028208;28;20040;-70
2023/01/09 06:04:48;;;;;;;3.13;1.90;;;6.10;99.90;;;;;;5023351;28;20032;-70
2023/01/09 06:07:14;;;;;;;2.85;1.77;;;6.10;99.90;;;;;;5026637;28;20041;-70
2023/01/09 06:09:40;;;;;;;3.65;1.55;;;6.10;99.90;;;;;;5027073;28;20128;-70
2023/01/09 06:12:05;;;;;;;4.22;1.95;;;6.10;99.90;;;;;;5024968;28;20033;-70
2023/01/09 06:14:31;;;;;;;5.97;2.25;;;6.10;99.90;;;;;;5024966;28;20033;-70
2023/01/09 06:16:56;;;;;;;4.00;2.20;;;6.10;99.90;;;;;;5020686;28;20029;-70
2023/01/09 06:19:22;;;;;;;3.78;2.10;;;6.00;99.90;;;;;;5021000;28;20057;-70
2023/01/09 06:21:47;;;;;;;5.30;2.50;;;6.00;99.90;;;;;;5025138;28;20049;-70
2023/01/09 06:24:13;;;;;;;5.97;2.58;;;5.90;99.90;;;;;;5020917;28;20343;-70
2023/01/09 06:26:38;;;;;;;4.32;2.25;;;5.90;99.90;;;;;;5028360;28;20059;-70
2023/01/09 06:29:04;;;;;;;4.88;3.17;;;5.90;99.90;;;;;;5021455;28;20105;-70
2023/01/09 06:31:29;;;;;;;5.28;3.13;;;6.00;99.90;;;;;;5027778;28;20037;-70
2023/01/09 06:33:55;;;;;;;6.43;2.88;;;5.90;99.90;;;;;;5025365;28;20037;-70
2023/01/09 06:36:20;;;;;;;5.80;3.40;;;5.90;99.90;;;;;;5024050;28;20437;-70
2023/01/09 06:38:46;;;;;;;4.72;2.60;;;5.80;99.90;;;;;;5027334;28;20107;-70
2023/01/09 06:41:11;;;;;;;4.50;2.80;;;5.90;99.90;;;;;;5024247;28;20403;-70
2023/01/09 06:43:37;;;;;;;5.90;2.90;;;5.90;99.90;;;;;;5025019;28;20045;-70
2023/01/09 06:46:04;;;;;;;5.25;2.88;;;5.80;99.90;;;;;;5023478;28;20040;-70
2023/01/09 06:48:30;;;;;;;4.78;2.90;;;5.90;99.90;;;;;;5020874;28;20029;-70
2023/01/09 06:50:56;;;;;;;5.03;2.85;;;5.80;99.90;;;;;;5023165;28;20071;-70
2023/01/09 06:53:21;;;;;;;7.50;3.17;;;5.90;99.90;;;;;;5023810;28;20048;-70
2023/01/09 06:55:47;;;;;;;6.60;3.63;;;5.80;99.90;;;;;;5029430;28;20029;-70
2023/01/09 06:58:12;;;;;;;6.65;4.03;;;5.90;99.90;;;;;;5028099;28;20057;-70
2023/01/09 07:00:38;;;;;;;7.00;3.90;;;5.90;99.90;;;;;;5030395;28;20444;-70
2023/01/09 07:03:04;;;;;;;7.10;4.13;;;5.90;99.90;;;;;;5029012;28;20037;-70
2023/01/09 07:05:39;;;;;;;5.95;4.05;;;5.90;99.90;;;;;;5022729;28;20038;-70
2023/01/09 07:08:04;;;;;;;8.23;4.47;;;5.90;99.90;;;;;;5029167;28;20041;-70
2023/01/09 07:10:30;;;;;;;7.25;4.07;;;6.00;99.90;;;;;;5030191;28;20088;-70
2023/01/09 07:12:55;;;;;;;7.35;4.22;;;6.00;99.90;;;;;;5025886;28;20043;-70
2023/01/09 07:15:21;;;;;;;7.00;4.55;;;6.00;99.90;;;;;;5028398;28;20025;-70
2023/01/09 07:17:49;;;;;;;8.52;4.63;;;6.00;99.90;;;;;;5028668;28;20385;-70
2023/01/09 07:20:15;;;;;;;6.78;3.95;;;5.90;99.90;;;;;;5025033;28;20438;-70
2023/01/09 07:22:40;;;;;;;7.88;4.15;;;6.00;99.90;;;;;;5028249;28;20062;-70
2023/01/09 07:25:06;;;;;;;9.40;4.97;;;5.90;99.90;;;;;;5025741;28;20033;-70
2023/01/09 07:27:31;;;;;;;6.75;3.80;;;5.90;99.90;;;;;;5028443;28;20108;-70
2023/01/09 07:29:57;;;;;;;6.60;4.25;;;5.90;99.90;;;;;;5025773;28;20034;-70
2023/01/09 07:32:23;;;;;;;6.75;4.35;;;5.90;99.90;;;;;;5027788;28;20060;-70
2023/01/09 07:34:50;;;;;;;9.63;4.20;;;5.90;99.90;;;;;;5019337;28;20038;-70
2023/01/09 07:37:15;;;;;;;8.85;4.60;;;6.00;99.90;;;;;;5022605;28;20029;-70
2023/01/09 07:39:41;;;;;;;7.72;4.53;;;6.00;99.90;;;;;;5022200;28;20099;-70
2023/01/09 07:42:06;;;;;;;7.80;4.82;;;6.00;99.90;;;;;;5025591;28;20034;-70
2023/01/09 07:44:32;;;;;;;10.00;5.45;;;6.00;99.90;;;;;;5026737;28;20524;-70
2023/01/09 07:46:57;;;;;;;8.52;4.70;;;6.00;99.90;;;;;;5019926;28;20033;-70
2023/01/09 07:49:23;;;;;;;12.05;5.53;;;6.00;99.90;;;;;;5024518;28;20131;-70
2023/01/09 07:51:48;;;;;;;13.63;5.78;;;6.00;99.90;;;;;;5024877;28;20041;-70
2023/01/09 07:54:14;;;;;;;9.32;5.47;;;6.00;99.90;;;;;;5026351;28;20037;-70
2023/01/09 07:56:39;;;;;;;11.52;5.45;;;6.00;99.90;;;;;;5025282;28;20120;-70
2023/01/09 07:59:05;;;;;;;15.27;7.18;;;6.00;99.90;;;;;;5029532;28;20025;-70
2023/01/09 08:01:31;;;;;;;14.43;7.15;;;6.00;99.90;;;;;;5027055;28;20037;-70
2023/01/09 08:03:56;;;;;;;14.10;7.20;;;6.00;99.70;;;;;;5031640;28;20033;-70
2023/01/09 08:06:22;;;;;;;14.10;6.28;;;6.00;99.20;;;;;;5027335;28;20460;-70
2023/01/09 08:08:48;;;;;;;11.85;6.80;;;6.00;99.20;;;;;;5030700;28;20072;-69
2023/01/09 08:11:14;;;;;;;11.73;5.78;;;6.10;99.20;;;;;;5027361;28;20441;-69
2023/01/09 08:13:39;;;;;;;11.20;6.05;;;6.00;99.30;;;;;;5029486;28;20041;-70
2023/01/09 08:16:05;;;;;;;14.38;6.60;;;6.00;99.30;;;;;;5030784;28;20040;-70
2023/01/09 08:18:31;;;;;;;13.82;6.65;;;5.90;99.30;;;;;;5026922;28;20076;-69
2023/01/09 08:20:56;;;;;;;12.02;6.70;;;5.80;99.40;;;;;;5030170;28;20041;-69
2023/01/09 08:23:22;;;;;;;11.32;6.03;;;5.80;99.40;;;;;;5025706;28;20437;-69
2023/01/09 08:25:47;;;;;;;10.10;5.75;;;5.70;99.40;;;;;;5028978;28;20032;-69
2023/01/09 08:28:12;;;;;;;9.63;5.75;;;5.70;99.50;;;;;;5031343;28;20033;-69
2023/01/09 08:30:38;;;;;;;9.63;5.90;;;5.70;99.60;;;;;;5028847;28;20144;-69
2023/01/09 08:33:04;;;;;;;12.70;5.70;;;5.80;99.60;;;;;;5025319;28;20049;-70
2023/01/09 08:35:29;;;;;;;14.18;6.82;;;5.80;99.70;;;;;;5029656;28;20461;-69
2023/01/09 08:37:55;;;;;;;11.55;6.13;;;5.80;99.60;;;;;;5022191;28;20477;-69
2023/01/09 08:40:20;;;;;;;14.18;6.28;;;5.80;99.50;;;;;;5033962;28;20030;-69
2023/01/09 08:48:15;;;;;;;11.50;6.47;;;5.70;99.40;;;;;;5029351;28;20107;-69
2023/01/09 08:50:42;;;;;;;11.45;6.57;;;5.60;99.40;;;;;;5031324;28;20027;-68
2023/01/09 08:53:08;;;;;;;11.23;6.00;;;5.60;99.40;;;;;;5028171;28;20087;-68
2023/01/09 08:55:33;;;;;;;12.40;6.63;;;5.60;99.40;;;;;;5032097;28;20466;-68
2023/01/09 08:57:59;;;;;;;9.60;6.03;;;5.60;99.40;;;;;;5029760;28;20080;-69
2023/01/09 09:00:24;;;;;;;13.45;6.38;;;5.60;99.40;;;;;;5029578;28;20037;-68
2023/01/09 09:02:51;;;;;;;13.98;7.10;;;5.60;99.30;;;;;;5022172;28;20478;-69
2023/01/09 09:05:17;;;;;;;12.95;6.80;;;5.70;99.40;;;;;;5024375;28;20059;-69
2023/01/09 09:07:43;;;;;;;15.48;7.18;;;5.60;99.30;;;;;;5026657;28;20156;-68
2023/01/09 09:10:09;;;;;;;14.68;7.25;;;5.70;99.30;;;;;;5030675;28;20454;-68
2023/01/09 09:12:34;;;;;;;13.07;6.45;;;5.60;99.20;;;;;;5031460;28;20075;-69
2023/01/09 09:15:13;;;;;;;11.63;6.32;;;5.60;99.10;;;;;;5027281;28;20026;-68
2023/01/09 09:17:39;;;;;;;11.30;7.30;;;5.60;98.90;;;;;;5029829;28;20026;-69
2023/01/09 09:20:06;;;;;;;12.70;6.50;;;5.60;98.70;;;;;;5025463;28;20548;-68
2023/01/09 09:22:32;;;;;;;12.95;6.07;;;5.60;98.60;;;;;;5028002;28;20041;-68
2023/01/09 09:24:57;;;;;;;16.33;7.28;;;5.60;98.40;;;;;;5031850;28;20029;-68
2023/01/09 09:27:23;;;;;;;16.02;5.63;;;5.60;98.30;;;;;;5029745;28;20041;-68
2023/01/09 09:29:49;;;;;;;13.93;6.32;;;5.60;98.10;;;;;;5031260;28;20069;-68
2023/01/09 09:32:14;;;;;;;11.35;5.72;;;5.60;98.30;;;;;;5023242;28;20435;-68
2023/01/09 09:34:40;;;;;;;12.60;6.40;;;5.70;98.30;;;;;;5030651;28;20037;-68
2023/01/09 09:37:05;;;;;;;11.63;4.85;;;5.70;98.30;;;;;;5026372;28;20042;-68
2023/01/09 09:39:31;;;;;;;13.05;5.50;;;5.80;97.40;;;;;;5028914;28;20516;-68
2023/01/09 09:45:16;;;;;;;12.00;4.90;;;5.90;97.00;;;;;;5018799;28;20685;-68
2023/01/09 09:48:17;;;;;;;14.25;5.55;;;5.90;96.80;;;;;;5026624;28;20038;-68
2023/01/09 09:51:09;;;;;;;12.60;5.40;;;6.00;96.80;;;;;;5022998;28;20053;-68
2023/01/09 09:53:45;;;;;;;12.65;5.47;;;5.90;96.60;;;;;;5026093;28;20033;-68
2023/01/09 09:56:13;;;;;;;9.93;5.22;;;5.90;96.60;;;;;;5031316;28;20526;-68
2023/01/09 09:58:42;;;;;;;12.85;4.65;;;6.00;96.70;;;;;;5022760;28;20524;-69
2023/01/09 10:01:11;;;;;;;13.02;5.45;;;6.00;96.50;;;;;;5029907;28;20067;-68
2023/01/09 10:03:43;;;;;;;11.38;5.13;;;6.00;96.70;;;;;;5030796;28;20025;-69
2023/01/09 10:06:25;;;;;;;13.15;5.50;;;6.10;97.00;;;;;;5029634;28;20029;-68
2023/01/09 10:09:04;;;;;;;10.68;5.68;;;6.20;97.10;;;;;;5028088;28;20029;-68
2023/01/09 10:11:42;;;;;;;9.73;5.47;;;6.30;96.70;;;;;;5028612;28;20021;-68
2023/01/09 10:14:09;;;;;;;11.45;5.15;;;6.40;96.70;;;;;;5029860;28;20112;-68
2023/01/09 10:16:49;;;;;;;11.60;5.80;;;6.30;96.20;;;;;;5030597;28;20104;-69
2023/01/09 10:19:38;;;;;;;15.73;5.97;;;6.20;96.00;;;;;;5020691;28;20029;-69
2023/01/09 10:22:31;;;;;;;11.15;4.88;;;6.30;96.00;;;;;;5027614;28;20049;-69
2023/01/09 10:25:30;;;;;;;10.35;4.95;;;6.20;96.10;;;;;;5030198;28;20030;-68
2023/01/09 10:28:26;;;;;;;16.67;5.20;;;6.20;96.00;;;;;;5029528;28;20125;-68
2023/01/09 10:31:14;;;;;;;9.43;5.22;;;6.10;96.20;;;;;;5026320;28;20029;-68
2023/01/09 10:34:22;;;;;;;12.00;5.60;;;6.10;96.20;;;;;;5011598;28;20057;-68
2023/01/09 10:37:11;;;;;;;13.93;5.65;;;6.30;96.00;;;;;;5018283;28;20099;-68
2023/01/09 10:39:54;;;;;;;11.82;5.43;;;6.60;95.90;;;;;;5023221;28;20445;-68
2023/01/09 10:42:47;;;;;;;12.23;5.50;;;7.10;96.20;;;;;;5016789;28;20037;-69
2023/01/09 10:45:31;;;;;;;9.90;5.70;;;7.50;95.90;;;;;;5028144;28;20030;-69
2023/01/09 10:48:04;;;;;;;7.63;4.93;;;7.50;94.40;;;;;;5027086;28;20048;-69
2023/01/09 10:50:33;;;;;;;10.68;5.00;;;7.30;93.60;;;;;;5025752;28;20033;-68
2023/01/09 10:53:03;;;;;;;13.55;3.97;;;7.20;94.00;;;;;;5026471;28;20464;-68
2023/01/09 10:55:35;;;;;;;13.30;4.63;;;7.10;93.80;;;;;;5026803;28;20029;-69
2023/01/09 10:58:07;;;;;;;7.78;4.22;;;7.00;94.00;;;;;;5028546;28;20037;-69
2023/01/09 11:00:33;;;;;;;9.25;4.15;;;7.10;94.10;;;;;;5024106;28;20048;-69
2023/01/09 11:02:58;;;;;;;10.32;4.20;;;7.00;94.20;;;;;;5023906;28;20030;-69
2023/01/09 11:05:27;;;;;;;12.23;4.68;;;7.10;94.40;;;;;;5026848;28;20084;-69
2023/01/09 11:07:56;;;;;;;11.68;4.10;;;7.10;94.70;;;;;;5026380;28;20109;-69
2023/01/09 11:10:21;;;;;;;8.48;4.03;;;7.10;94.60;;;;;;5023107;28;20028;-69
2023/01/09 11:12:47;;;;;;;9.82;4.05;;;7.10;94.10;;;;;;5029108;28;20487;-69
2023/01/09 11:15:15;;;;;;;9.00;4.65;;;7.00;93.50;;;;;;5024111;28;20048;-69
2023/01/09 11:17:45;;;;;;;11.10;4.00;;;7.00;93.70;;;;;;5019510;28;20033;-69
2023/01/09 11:20:27;;;;;;;9.60;4.20;;;7.20;93.60;;;;;;5020710;28;20169;-69
2023/01/09 11:22:55;;;;;;;9.57;4.80;;;7.30;93.40;;;;;;5024025;28;20081;-69
2023/01/09 11:25:23;;;;;;;11.63;4.60;;;7.50;93.90;;;;;;5026998;28;20061;-69
2023/01/09 11:28:00;;;;;;;10.27;4.78;;;7.50;93.70;;;;;;5031019;28;20029;-69
2023/01/09 11:30:26;;;;;;;14.73;4.88;;;7.30;93.20;;;;;;5017669;28;20041;-69
2023/01/09 11:32:54;;;;;;;10.70;5.03;;;7.20;93.20;;;;;;5033626;28;20033;-69
2023/01/09 11:35:30;;;;;;;14.68;4.75;;;7.20;93.80;;;;;;5028086;28;20030;-69
2023/01/09 11:38:01;;;;;;;13.15;4.90;;;7.00;93.40;;;;;;5023261;28;20026;-69
2023/01/09 11:40:29;;;;;;;;;;;6.90;94.00;;;;;;5023155;28;20049;-69
2023/01/09 11:43:12;;;;;;;11.57;5.53;;;6.90;94.10;;;;;;5027151;28;19909;-69
2023/01/09 11:45:45;;;;;;;9.10;4.75;;;6.80;94.30;;;;;;5023783;28;20380;-69
2023/01/09 11:48:25;;;;;;;13.52;5.28;;;6.80;94.40;;;;;;5027058;28;20029;-69
2023/01/09 11:50:56;;;;;;;10.40;4.95;;;6.80;95.00;;;;;;5030202;28;20144;-69
2023/01/09 11:53:23;;;;;;;10.93;4.63;;;6.70;94.70;;;;;;5021356;28;20025;-69
2023/01/09 11:56:00;;;;;;;12.23;5.35;;;6.70;94.90;;;;;;5024381;28;20048;-69
2023/01/09 11:58:34;;;;;;;10.48;4.70;;;6.80;95.10;;;;;;5028823;28;20033;-69
2023/01/09 12:01:14;;;;;;;10.20;4.40;;;6.70;94.80;;;;;;5021856;28;20077;-69
2023/01/09 12:04:13;;;;;;;15.65;4.78;;;6.80;95.00;;;;;;5019160;28;20026;-69
2023/01/09 12:06:49;;;;;;;8.20;4.10;;;6.80;95.00;;;;;;5020253;28;20133;-69
2023/01/09 12:09:37;;;;;;;13.95;5.00;;;6.80;94.70;;;;;;5023420;28;20029;-69
2023/01/09 12:12:29;;;;;;;10.82;5.13;;;6.80;94.80;;;;;;5026305;28;20430;-69
2023/01/09 12:15:22;;;;;;;10.15;4.38;;;6.80;95.20;;;;;;5018111;28;20082;-69
2023/01/09 12:18:07;;;;;;;10.18;4.82;;;6.80;95.10;;;;;;5026876;28;20033;-69
2023/01/09 12:21:00;;;;;;;11.88;4.90;;;6.80;95.40;;;;;;5024778;28;20061;-69
2023/01/09 12:23:58;;;;;;;9.93;4.93;;;6.90;95.70;;;;;;5025188;28;20046;-69
2023/01/09 12:26:30;;;;;;;13.18;4.72;;;6.90;95.60;;;;;;5032750;28;20065;-69
2023/01/09 12:29:25;;;;;;;10.43;5.15;;;7.00;95.20;;;;;;5027153;28;20596;-69
2023/01/09 12:32:09;;;;;;;12.50;5.25;;;7.00;95.10;;;;;;5029723;28;20398;-69
2023/01/09 12:34:49;;;;;;;12.10;4.70;;;7.00;94.90;;;;;;5024040;28;20029;-69
2023/01/09 12:37:21;;;;;;;9.07;4.57;;;7.00;95.00;;;;;;5031899;28;20034;-69
2023/01/09 12:39:58;;;;;;;8.02;4.30;;;7.00;94.80;;;;;;5025688;28;20034;-69
2023/01/09 12:42:42;;;;;;;10.82;5.15;;;7.00;94.60;;;;;;5024575;28;20105;-69
2023/01/09 12:45:36;;;;;;;8.40;4.50;;;7.00;94.80;;;;;;5024727;28;20037;-69
2023/01/09 12:48:31;;;;;;;9.18;4.78;;;7.10;94.90;;;;;;5020464;28;20657;-69
2023/01/09 12:51:22;;;;;;;10.30;4.53;;;7.00;94.80;;;;;;5019458;28;20549;-69
2023/01/09 12:53:55;;;;;;;11.68;4.25;;;7.00;94.80;;;;;;5023102;28;20075;-69
2023/01/09 12:56:25;;;;;;;9.32;4.82;;;6.90;95.30;;;;;;5027594;28;20079;-69
2023/01/09 12:58:58;;;;;;;9.68;4.70;;;6.80;95.20;;;;;;5020880;28;20075;-69
2023/01/09 13:01:37;;;;;;;8.95;4.85;;;6.80;95.50;;;;;;5025482;28;20060;-69
2023/01/09 13:04:20;;;;;;;8.35;4.10;;;6.70;95.70;;;;;;5029252;28;20037;-69
2023/01/09 13:06:52;;;;;;;7.72;4.40;;;6.70;95.80;;;;;;5028120;28;20033;-69
2023/01/09 13:09:24;;;;;;;10.25;4.45;;;6.70;95.80;;;;;;5021534;28;20053;-69
2023/01/09 13:12:13;;;;;;;11.32;5.28;;;6.60;95.90;;;;;;5021722;28;20091;-69
2023/01/09 13:15:02;;;;;;;8.40;4.88;;;6.60;95.80;;;;;;5021300;28;20114;-68
2023/01/09 13:17:45;;;;;;;7.43;3.97;;;6.60;95.80;;;;;;5029916;28;20458;-68
2023/01/09 13:20:27;;;;;;;10.70;5.47;;;6.60;95.70;;;;;;5025580;28;20041;-68
2023/01/09 13:22:53;;;;;;;8.48;4.88;;;6.60;95.70;;;;;;5029174;28;20045;-68